Aquadale, NC

5:13 AM EST on February 01, 2015 (GMT -0500)
Stanly County | Change Station
CLOSE
Current Station
Airport
Location: Albemarle,
Elevation: 610 ft
Nearby Weather Stations

Elev 610 ft 35.42 °N, 80.15 °W | Updated 18 minutes ago

Overcast
Overcast
36 °F
Feels Like 32 °F
N
5
Wind Variable Wind from WSW

Today
High -- | Low -- °F
--% Chance of Precip.
Yesterday
High -- | Low -- °F
Precip. -- in
7:20 AM 5:48 PM
Waxing Gibbous, 94% visible
Pressure 30.30 in
Visibility 10.0 miles
Clouds Overcast 11000 ft
Windchill 32 °F
Dew Point 25 °F
Humidity 65%
Rainfall 0.00 in
Snow Depth Not available.
UV 0 out of 12
Pollen 3.10 out of 12
Air Quality Not available.
Flu Activity Not available.
METAR KVUJ 010955Z AUTO 24004KT 10SM OVC110 02/M04 A3030

More Conditions Fewer Conditions

Pressure 30.30 in
Visibility 10.0 miles
Clouds Overcast 11000 ft
Windchill 32 °F
Dew Point 25 °F
Humidity 65%
Rainfall 0.00 in
Snow Depth Not available.
UV 0 out of 12
Pollen 3.10 out of 12
Air Quality Not available.
Flu Activity Not available.
METAR KVUJ 010955Z AUTO 24004KT 10SM OVC110 02/M04 A3030

More Conditions Fewer Conditions

10-Day Weather Forecast

Almanac

Astronomy

Feb. 01, 2015 Rise Set
Actual Time
Civil Twilight
Nautical Twilight
Astronomical Twilight
Moon
Length of Visible Light
Length of Day
Tomorrow will be .
, % of the Moon is Illuminated

Today's Extremes

State Highs State Lows

Community

WunderPhotos

Upload Photos

1,792,330 photos uploaded!

WunderBlogs® & News

Nearby

Air Quality

  Air Quality AQ Index Pollutant
Not available.

Snow Depth

Station Depth Elevation

Earthquake Activity

City Distance Mag. Time & Date
Minimum magnitude displayed is 2.5.

Coastal Water Temperatures

Place Temperature

Nearby Weather Stations